Time;durP1;ratioP1;P1;durP2;ratioP2;P2;SDS_P1;SDS_P2;PMS_P1;PMS_P2;Temp;Humidity;BMP_temperature;BMP_pressure;BME280_temperature;BME280_humidity;BME280_pressure;Samples;Min_cycle;Max_cycle;Signal;HPM_P1;HPM_P2
2021/12/22 00:00:30;;;;;;;84.78;50.05;;;;;;;-144.47;100.00;61586.06;5027625;28;20034;-78
2021/12/22 00:02:56;;;;;;;87.75;49.42;;;;;;;-144.47;100.00;61586.06;5025469;28;20037;-78
2021/12/22 00:05:27;;;;;;;87.88;49.00;;;;;;;-144.47;100.00;61586.06;5043333;28;20389;-78
2021/12/22 00:07:54;;;;;;;85.07;50.95;;;;;;;-144.47;100.00;61586.06;5025573;28;20486;-79
2021/12/22 00:10:21;;;;;;;88.75;50.08;;;;;;;-144.47;100.00;61586.06;5028534;28;20093;-78
2021/12/22 00:12:49;;;;;;;86.55;49.88;;;;;;;-144.47;100.00;61586.06;5025228;28;20452;-78
2021/12/22 00:15:14;;;;;;;88.28;50.40;;;;;;;-144.47;100.00;61586.06;5028274;28;20021;-78
2021/12/22 00:17:40;;;;;;;87.80;48.95;;;;;;;-144.47;100.00;61586.06;5025843;28;20499;-79
2021/12/22 00:20:08;;;;;;;79.38;47.95;;;;;;;-144.47;100.00;61586.06;5026996;28;20034;-78
2021/12/22 00:22:33;;;;;;;85.90;49.03;;;;;;;-144.47;100.00;61586.06;5026730;28;20094;-78
2021/12/22 00:24:59;;;;;;;88.45;50.63;;;;;;;-144.47;100.00;61586.06;5026377;28;20029;-78
2021/12/22 00:27:25;;;;;;;85.38;50.70;;;;;;;-144.47;100.00;61586.06;5026533;28;20042;-78
2021/12/22 00:29:52;;;;;;;81.15;48.10;;;;;;;-144.47;100.00;61586.06;5005513;28;20113;-78
2021/12/22 00:32:18;;;;;;;84.03;50.97;;;;;;;-144.47;100.00;61586.06;5007401;28;20117;-78
2021/12/22 00:34:51;;;;;;;84.28;50.05;;;;;;;-144.47;100.00;61586.06;5021114;28;20030;-79
2021/12/22 00:37:28;;;;;;;84.22;49.17;;;;;;;-144.47;100.00;61586.06;5028236;28;20075;-79
2021/12/22 00:39:55;;;;;;;80.85;48.42;;;;;;;-144.47;100.00;61586.06;5025227;28;20458;-77
2021/12/22 00:42:20;;;;;;;85.60;48.63;;;;;;;-144.47;100.00;61586.06;5028082;28;20029;-77
2021/12/22 00:44:50;;;;;;;83.00;49.45;;;;;;;-144.47;100.00;61586.06;5025188;28;20449;-77
2021/12/22 00:47:17;;;;;;;82.87;48.50;;;;;;;-144.47;100.00;61586.06;5023478;28;20042;-78
2021/12/22 00:49:43;;;;;;;86.28;50.53;;;;;;;-144.47;100.00;61586.06;5019129;28;20037;-79
2021/12/22 00:52:08;;;;;;;82.90;48.63;;;;;;;-144.47;100.00;61586.06;5024901;28;20087;-79
2021/12/22 00:54:34;;;;;;;87.45;50.72;;;;;;;-144.47;100.00;61586.06;5023992;28;20048;-78
2021/12/22 00:57:05;;;;;;;87.43;50.13;;;;;;;-144.47;100.00;61586.06;5027268;28;20029;-77
2021/12/22 00:59:35;;;;;;;79.90;49.00;;;;;;;-144.47;100.00;61586.06;5026924;28;20140;-78
2021/12/22 01:02:02;;;;;;;84.78;48.53;;;;;;;-144.47;100.00;61586.06;5022011;28;20490;-78
2021/12/22 01:04:28;;;;;;;87.20;47.97;;;;;;;-144.47;100.00;61586.06;5026260;28;20101;-78
2021/12/22 01:06:53;;;;;;;82.43;47.85;;;;;;;-144.47;100.00;61586.06;5021942;28;20030;-78
2021/12/22 01:09:20;;;;;;;84.10;48.55;;;;;;;-144.47;100.00;61586.06;5016623;28;20070;-78
2021/12/22 01:11:45;;;;;;;79.47;47.50;;;;;;;-144.47;100.00;61586.06;5021344;28;20056;-77
2021/12/22 01:14:11;;;;;;;78.85;47.38;;;;;;;-144.47;100.00;61586.06;5022674;28;20505;-78
2021/12/22 01:16:37;;;;;;;85.43;48.03;;;;;;;-144.47;100.00;61586.06;5023569;28;20037;-78
2021/12/22 01:19:08;;;;;;;82.65;47.42;;;;;;;-144.47;100.00;61586.06;5023503;28;20064;-77
2021/12/22 01:21:46;;;;;;;83.78;46.85;;;;;;;-144.47;100.00;61586.06;5020715;28;20048;-78
2021/12/22 01:24:21;;;;;;;81.57;48.10;;;;;;;-144.47;100.00;61586.06;5018351;28;20038;-78
2021/12/22 01:26:50;;;;;;;77.13;46.05;;;;;;;-144.47;100.00;61586.06;5020975;28;20064;-78
2021/12/22 01:29:16;;;;;;;83.78;47.95;;;;;;;-144.47;100.00;61586.06;5024423;28;20038;-76
2021/12/22 01:31:42;;;;;;;77.00;46.67;;;;;;;-144.47;100.00;61586.06;5022030;28;20389;-78
2021/12/22 01:34:09;;;;;;;84.15;47.65;;;;;;;-144.47;100.00;61586.06;5015543;28;20033;-77
2021/12/22 01:36:34;;;;;;;77.72;44.88;;;;;;;-144.47;100.00;61586.06;5022502;28;20017;-77
2021/12/22 01:39:00;;;;;;;79.03;45.45;;;;;;;-144.47;100.00;61586.06;5022083;28;20496;-78
2021/12/22 01:41:26;;;;;;;81.30;46.20;;;;;;;-144.47;100.00;61586.06;5024059;28;20448;-76
2021/12/22 01:43:51;;;;;;;85.90;47.30;;;;;;;-144.47;100.00;61586.06;5009617;28;20032;-78
2021/12/22 01:49:09;;;;;;;79.15;46.78;;;;;;;-144.47;100.00;61586.06;5021548;28;20506;-76
2021/12/22 01:49:16;;;;;;;77.45;46.65;;;;;;;-144.47;100.00;61586.06;5016379;28;20087;-78
2021/12/22 01:51:41;;;;;;;79.75;46.40;;;;;;;-144.47;100.00;61586.06;5021534;28;20420;-78
2021/12/22 01:54:18;;;;;;;75.88;46.20;;;;;;;-144.47;100.00;61586.06;5020254;28;20177;-79
2021/12/22 01:56:45;;;;;;;80.95;46.15;;;;;;;-144.47;100.00;61586.06;5013856;28;20552;-77
2021/12/22 01:59:11;;;;;;;78.80;45.80;;;;;;;-144.47;100.00;61586.06;5021627;28;20041;-78
2021/12/22 02:01:38;;;;;;;82.32;44.85;;;;;;;-144.47;100.00;61586.06;5022194;28;20108;-78
2021/12/22 02:04:06;;;;;;;77.63;45.92;;;;;;;-144.47;100.00;61586.06;5022504;28;20045;-79
2021/12/22 02:06:32;;;;;;;79.57;45.80;;;;;;;-144.47;100.00;61586.06;5022865;28;20040;-77
2021/12/22 02:08:58;;;;;;;78.88;46.28;;;;;;;-144.47;100.00;61586.06;5021001;28;20037;-78
2021/12/22 02:11:24;;;;;;;80.43;46.50;;;;;;;-144.47;100.00;61586.06;5018847;28;20029;-76
2021/12/22 02:14:00;;;;;;;79.38;46.10;;;;;;;-144.47;100.00;61586.06;5018116;28;20033;-78
2021/12/22 02:16:30;;;;;;;83.03;47.95;;;;;;;-144.47;100.00;61586.06;5018226;28;20430;-78
2021/12/22 02:18:57;;;;;;;84.47;46.83;;;;;;;-144.47;100.00;61586.06;5021759;28;20038;-77
2021/12/22 02:21:25;;;;;;;86.68;48.03;;;;;;;-144.47;100.00;61586.06;5020343;28;20044;-77
2021/12/22 02:23:52;;;;;;;86.55;49.63;;;;;;;-144.47;100.00;61586.06;5022504;28;20133;-78
2021/12/22 02:26:23;;;;;;;89.18;49.13;;;;;;;-144.47;100.00;61586.06;5020121;28;20037;-78
2021/12/22 02:28:57;;;;;;;;;;;;;;;-144.47;100.00;61586.06;5024705;28;20030;-78
2021/12/22 02:31:25;;;;;;;80.38;47.78;;;;;;;-144.47;100.00;61586.06;5019957;28;20365;-77
2021/12/22 02:33:51;;;;;;;78.38;46.00;;;;;;;-144.47;100.00;61586.06;5023618;28;20400;-77
2021/12/22 02:36:23;;;;;;;81.43;49.75;;;;;;;-144.47;100.00;61586.06;5019978;28;20084;-78
2021/12/22 02:38:52;;;;;;;82.43;46.83;;;;;;;-144.47;100.00;61586.06;5019632;28;20528;-78
2021/12/22 02:41:22;;;;;;;85.07;48.42;;;;;;;-144.47;100.00;61586.06;5019060;28;20038;-77
2021/12/22 02:43:50;;;;;;;84.72;49.95;;;;;;;-144.47;100.00;61586.06;5019719;28;20041;-78
2021/12/22 02:46:18;;;;;;;83.88;48.78;;;;;;;-144.47;100.00;61586.06;5022346;28;20038;-78
2021/12/22 02:48:45;;;;;;;83.65;50.38;;;;;;;-144.47;100.00;61586.06;5035310;28;20076;-78
2021/12/22 02:51:12;;;;;;;87.93;50.25;;;;;;;-144.47;100.00;61586.06;5021787;28;20034;-78
2021/12/22 03:03:57;;;;;;;76.60;43.92;;;;;;;-144.47;100.00;61586.06;5022872;28;20528;-78
2021/12/22 03:09:27;;;;;;;82.20;46.75;;;;;;;-144.47;100.00;61586.06;5022369;28;20394;-79
2021/12/22 03:11:55;;;;;;;80.75;47.08;;;;;;;-144.47;100.00;61586.06;5019162;28;20510;-78
2021/12/22 03:14:22;;;;;;;79.10;46.13;;;;;;;-144.47;100.00;61586.06;5018641;28;20104;-77
2021/12/22 03:16:49;;;;;;;86.13;48.13;;;;;;;-144.47;100.00;61586.06;5022391;28;20116;-77
2021/12/22 03:19:21;;;;;;;77.45;47.10;;;;;;;-144.47;100.00;61586.06;5019401;28;20466;-77
2021/12/22 03:21:48;;;;;;;80.35;44.88;;;;;;;-144.47;100.00;61586.06;5002214;28;20040;-77
2021/12/22 03:24:14;;;;;;;75.93;45.13;;;;;;;-144.47;100.00;61586.06;5019401;28;20038;-78
2021/12/22 03:26:44;;;;;;;81.57;45.30;;;;;;;-144.47;100.00;61586.06;5000567;28;20432;-78
2021/12/22 03:29:14;;;;;;;80.97;47.80;;;;;;;-144.47;100.00;61586.06;5014221;28;20034;-78
2021/12/22 03:31:40;;;;;;;78.47;47.15;;;;;;;-144.47;100.00;61586.06;5019613;28;20037;-77
2021/12/22 03:34:07;;;;;;;83.80;49.25;;;;;;;-144.47;100.00;61586.06;5020688;28;20038;-77
2021/12/22 03:36:33;;;;;;;79.88;45.65;;;;;;;-144.47;100.00;61586.06;5016357;28;20058;-78
2021/12/22 03:38:59;;;;;;;81.85;47.42;;;;;;;-144.47;100.00;61586.06;5001062;28;20058;-77
2021/12/22 03:41:24;;;;;;;86.57;47.80;;;;;;;-144.47;100.00;61586.06;5021490;28;20053;-78
2021/12/22 03:43:50;;;;;;;81.63;46.80;;;;;;;-144.47;100.00;61586.06;5018753;28;20394;-77
2021/12/22 03:46:15;;;;;;;79.72;47.75;;;;;;;-144.47;100.00;61586.06;5021952;28;20044;-78
2021/12/22 03:48:43;;;;;;;83.50;46.72;;;;;;;-144.47;100.00;61586.06;5020766;28;20022;-77
2021/12/22 03:51:09;;;;;;;75.40;45.65;;;;;;;-144.47;100.00;61586.06;5021758;28;20034;-77
2021/12/22 03:53:35;;;;;;;82.10;46.85;;;;;;;-144.47;100.00;61586.06;5019951;28;20083;-77
2021/12/22 03:56:00;;;;;;;80.90;47.38;;;;;;;-144.47;100.00;61586.06;5020021;28;20048;-77
2021/12/22 03:58:26;;;;;;;72.57;44.88;;;;;;;-144.47;100.00;61586.06;5024188;28;20486;-76
2021/12/22 04:00:54;;;;;;;72.75;43.15;;;;;;;-144.47;100.00;61586.06;5018843;28;20026;-77
2021/12/22 04:03:22;;;;;;;73.35;41.60;;;;;;;-144.47;100.00;61586.06;5018461;28;20038;-78
2021/12/22 04:05:48;;;;;;;73.80;42.65;;;;;;;-144.47;100.00;61586.06;5018543;28;20076;-78
2021/12/22 04:08:17;;;;;;;73.90;43.17;;;;;;;-144.47;100.00;61586.06;5021092;28;20376;-78
2021/12/22 04:10:47;;;;;;;74.43;43.80;;;;;;;-144.47;100.00;61586.06;5019107;28;20498;-78
2021/12/22 04:13:13;;;;;;;68.80;43.08;;;;;;;-144.47;100.00;61586.06;5020802;28;20523;-78
2021/12/22 04:15:39;;;;;;;74.80;43.67;;;;;;;-144.47;100.00;61586.06;5015175;28;20038;-78
2021/12/22 04:18:05;;;;;;;71.88;43.63;;;;;;;-144.47;100.00;61586.06;5020099;28;20045;-77
2021/12/22 04:20:31;;;;;;;71.75;42.80;;;;;;;-144.47;100.00;61586.06;5020666;28;20064;-77
2021/12/22 04:22:58;;;;;;;74.82;43.00;;;;;;;-144.47;100.00;61586.06;5018881;28;20161;-78
2021/12/22 04:25:24;;;;;;;76.32;43.25;;;;;;;-144.47;100.00;61586.06;5021559;28;20036;-78
2021/12/22 04:27:52;;;;;;;72.95;43.13;;;;;;;-144.47;100.00;61586.06;5001818;28;20041;-78
2021/12/22 04:30:19;;;;;;;72.65;42.42;;;;;;;-144.47;100.00;61586.06;4997039;28;20026;-77
2021/12/22 04:32:45;;;;;;;74.65;43.25;;;;;;;-144.47;100.00;61586.06;5014079;28;20121;-78
2021/12/22 04:35:10;;;;;;;70.32;41.63;;;;;;;-144.47;100.00;61586.06;5018755;28;20132;-77
2021/12/22 04:37:36;;;;;;;72.70;43.10;;;;;;;-144.47;100.00;61586.06;4999107;28;20050;-76
2021/12/22 04:40:04;;;;;;;72.63;42.75;;;;;;;-144.47;100.00;61586.06;5020176;28;20045;-78
2021/12/22 04:42:29;;;;;;;73.18;41.28;;;;;;;-144.47;100.00;61586.06;5022798;28;20030;-78
2021/12/22 04:44:57;;;;;;;69.45;41.05;;;;;;;-144.47;100.00;61586.06;5024581;28;20029;-78
2021/12/22 04:47:22;;;;;;;72.60;41.50;;;;;;;-144.47;100.00;61586.06;5021255;28;20034;-78
2021/12/22 04:49:48;;;;;;;69.82;40.95;;;;;;;-144.47;100.00;61586.06;5025217;28;20030;-78
2021/12/22 04:52:20;;;;;;;67.95;41.10;;;;;;;-144.47;100.00;61586.06;5021535;28;20034;-78
2021/12/22 04:55:02;;;;;;;68.80;40.92;;;;;;;-144.47;100.00;61586.06;5024805;28;20041;-78
2021/12/22 04:57:28;;;;;;;70.22;41.03;;;;;;;-144.47;100.00;61586.06;5020354;28;20066;-77
2021/12/22 04:59:53;;;;;;;74.07;40.92;;;;;;;-144.47;100.00;61586.06;5023108;28;20087;-78
2021/12/22 05:02:19;;;;;;;69.35;40.70;;;;;;;-144.47;100.00;61586.06;5024578;28;20026;-78
2021/12/22 05:04:44;;;;;;;70.70;40.13;;;;;;;-144.47;100.00;61586.06;5024257;28;20366;-78
2021/12/22 05:07:10;;;;;;;66.70;40.50;;;;;;;-144.47;100.00;61586.06;5022720;28;20038;-78
2021/12/22 05:09:36;;;;;;;70.20;41.08;;;;;;;-144.47;100.00;61586.06;5001937;28;20030;-78
2021/12/22 05:12:01;;;;;;;69.07;40.60;;;;;;;-144.47;100.00;61586.06;5023067;28;20536;-78
2021/12/22 05:14:28;;;;;;;73.57;41.85;;;;;;;-144.47;100.00;61586.06;5001170;28;20089;-80
2021/12/22 05:17:01;;;;;;;71.80;42.42;;;;;;;-144.47;100.00;61586.06;5022821;28;20096;-78
2021/12/22 05:19:27;;;;;;;71.07;42.85;;;;;;;-144.47;100.00;61586.06;5021803;28;20121;-78
2021/12/22 05:21:53;;;;;;;70.80;41.35;;;;;;;-144.47;100.00;61586.06;5024828;28;20101;-78
2021/12/22 05:24:19;;;;;;;78.05;45.33;;;;;;;-144.47;100.00;61586.06;5020876;28;20030;-78
2021/12/22 05:26:45;;;;;;;77.25;43.95;;;;;;;-144.47;100.00;61586.06;5024351;28;20060;-79
2021/12/22 05:29:12;;;;;;;74.47;42.30;;;;;;;-144.47;100.00;61586.06;5022311;28;20436;-78
2021/12/22 05:31:38;;;;;;;69.63;43.40;;;;;;;-144.47;100.00;61586.06;5022888;28;20145;-78
2021/12/22 05:34:04;;;;;;;68.53;42.33;;;;;;;-144.47;100.00;61586.06;5021278;28;20041;-78
2021/12/22 05:36:30;;;;;;;69.88;42.08;;;;;;;-144.47;100.00;61586.06;5002229;28;20041;-78
2021/12/22 05:38:55;;;;;;;71.10;42.90;;;;;;;-144.47;100.00;61586.06;5022238;28;20061;-79
2021/12/22 05:41:21;;;;;;;73.40;43.53;;;;;;;-144.47;100.00;61586.06;5020391;28;20107;-78
2021/12/22 05:43:47;;;;;;;70.30;43.67;;;;;;;-144.47;100.00;61586.06;5023832;28;20099;-77
2021/12/22 05:46:13;;;;;;;68.18;39.90;;;;;;;-144.47;100.00;61586.06;5021552;28;20082;-77
2021/12/22 05:48:38;;;;;;;69.43;39.75;;;;;;;-144.47;100.00;61586.06;5022543;28;20038;-78
2021/12/22 05:51:04;;;;;;;67.10;40.20;;;;;;;-144.47;100.00;61586.06;5004339;28;20346;-78
2021/12/22 05:53:30;;;;;;;63.22;40.88;;;;;;;-144.47;100.00;61586.06;5000292;28;20022;-79
2021/12/22 05:55:57;;;;;;;64.50;39.67;;;;;;;-144.47;100.00;61586.06;5013351;28;20061;-78
2021/12/22 05:58:23;;;;;;;65.47;39.30;;;;;;;-144.47;100.00;61586.06;5025152;28;20061;-79
2021/12/22 06:00:49;;;;;;;66.72;40.95;;;;;;;-144.47;100.00;61586.06;5020963;28;20037;-79
2021/12/22 06:03:15;;;;;;;63.50;39.83;;;;;;;-144.47;100.00;61586.06;5023131;28;20022;-79
2021/12/22 06:05:41;;;;;;;63.88;38.45;;;;;;;-144.47;100.00;61586.06;5021501;28;20101;-78
2021/12/22 06:08:07;;;;;;;56.88;35.85;;;;;;;-144.47;100.00;61586.06;5000022;28;20125;-79
2021/12/22 06:10:34;;;;;;;64.53;38.35;;;;;;;-144.47;100.00;61586.06;5016720;28;20472;-79
2021/12/22 06:13:04;;;;;;;60.42;37.10;;;;;;;-144.47;100.00;61586.06;5004112;28;20037;-78
2021/12/22 06:15:30;;;;;;;59.28;38.25;;;;;;;-144.47;100.00;61586.06;5021060;28;20039;-78
2021/12/22 06:17:57;;;;;;;60.80;37.92;;;;;;;-144.47;100.00;61586.06;5023127;28;20424;-77
2021/12/22 06:20:24;;;;;;;60.17;36.67;;;;;;;-144.47;100.00;61586.06;5019623;28;20088;-78
2021/12/22 06:22:50;;;;;;;58.35;36.33;;;;;;;-144.47;100.00;61586.06;5023723;28;20041;-78
2021/12/22 06:25:16;;;;;;;62.40;38.47;;;;;;;-144.47;100.00;61586.06;5020353;28;20764;-78
2021/12/22 06:27:41;;;;;;;64.60;38.67;;;;;;;-144.47;100.00;61586.06;5023941;28;20104;-78
2021/12/22 06:30:07;;;;;;;65.05;40.15;;;;;;;-144.47;100.00;61586.06;5021541;28;20034;-78
2021/12/22 06:32:33;;;;;;;70.22;40.67;;;;;;;-144.47;100.00;61586.06;5021705;28;20130;-77
2021/12/22 06:34:58;;;;;;;68.65;40.67;;;;;;;-144.47;100.00;61586.06;5017336;28;20038;-77
2021/12/22 06:37:24;;;;;;;67.47;42.17;;;;;;;-144.47;100.00;61586.06;5020054;28;20062;-77
2021/12/22 06:39:49;;;;;;;75.78;45.05;;;;;;;-144.47;100.00;61586.06;5019588;28;20132;-76
2021/12/22 06:42:15;;;;;;;76.60;45.20;;;;;;;-144.47;100.00;61586.06;5012791;28;20042;-77
2021/12/22 06:44:40;;;;;;;81.28;48.13;;;;;;;-144.47;100.00;61586.06;5014437;28;20026;-77
2021/12/22 06:47:07;;;;;;;79.35;46.60;;;;;;;-144.47;100.00;61586.06;5018389;28;20044;-77
2021/12/22 06:49:33;;;;;;;79.88;46.42;;;;;;;-144.47;100.00;61586.06;5017675;28;20073;-78
2021/12/22 06:51:58;;;;;;;78.25;46.03;;;;;;;-144.47;100.00;61586.06;4999748;28;20065;-76
2021/12/22 06:54:24;;;;;;;75.65;43.08;;;;;;;-144.47;100.00;61586.06;5019908;28;20762;-78
2021/12/22 06:56:49;;;;;;;66.68;41.40;;;;;;;-144.47;100.00;61586.06;5016475;28;20034;-77
2021/12/22 06:59:15;;;;;;;72.93;41.88;;;;;;;-144.47;100.00;61586.06;5023416;28;20052;-77
2021/12/22 07:01:41;;;;;;;70.28;42.58;;;;;;;-144.47;100.00;61586.06;5016528;28;20034;-77
2021/12/22 07:04:06;;;;;;;68.75;42.78;;;;;;;-144.47;100.00;61586.06;4326022;28;10000659;-77
2021/12/22 07:06:32;;;;;;;69.72;41.63;;;;;;;-144.47;100.00;61586.06;5021923;28;20732;-78
2021/12/22 07:08:59;;;;;;;69.28;40.25;;;;;;;-144.47;100.00;61586.06;5022762;28;20037;-77
2021/12/22 07:11:25;;;;;;;74.63;41.95;;;;;;;-144.47;100.00;61586.06;5018743;28;20120;-77
2021/12/22 07:13:51;;;;;;;71.03;40.33;;;;;;;-144.47;100.00;61586.06;5019043;28;20041;-78
2021/12/22 07:16:16;;;;;;;74.43;42.13;;;;;;;-144.47;100.00;61586.06;5019404;28;20026;-77
2021/12/22 07:18:42;;;;;;;75.10;41.08;;;;;;;-144.47;100.00;61586.06;5021793;28;20086;-77
2021/12/22 07:21:08;;;;;;;70.63;41.20;;;;;;;-144.47;100.00;61586.06;5012318;28;20029;-77
2021/12/22 07:23:33;;;;;;;69.40;41.92;;;;;;;-144.47;100.00;61586.06;5020118;28;20061;-77
2021/12/22 07:25:59;;;;;;;76.78;43.42;;;;;;;-144.47;100.00;61586.06;5021364;28;20025;-77
2021/12/22 07:28:24;;;;;;;77.35;42.50;;;;;;;-144.47;100.00;61586.06;5018857;28;20037;-77
2021/12/22 07:30:50;;;;;;;95.15;45.20;;;;;;;-144.47;100.00;61586.06;5019259;28;20488;-77
2021/12/22 07:33:18;;;;;;;102.63;46.75;;;;;;;-144.47;100.00;61586.06;5019272;28;20033;-77
2021/12/22 07:35:58;;;;;;;95.78;46.25;;;;;;;-144.47;100.00;61586.06;5021702;28;20038;-78
2021/12/22 07:38:35;;;;;;;92.28;45.35;;;;;;;-144.47;100.00;61586.06;5018998;28;20033;-78
2021/12/22 07:41:03;;;;;;;90.85;45.10;;;;;;;-144.47;100.00;61586.06;5021334;28;20072;-78
2021/12/22 07:43:30;;;;;;;96.40;46.15;;;;;;;-144.47;100.00;61586.06;4998683;28;20026;-78
2021/12/22 07:45:55;;;;;;;100.63;48.17;;;;;;;-144.47;100.00;61586.06;5020591;28;20039;-78
2021/12/22 07:48:21;;;;;;;98.40;45.42;;;;;;;-144.47;100.00;61586.06;5018695;28;20038;-78
2021/12/22 07:50:47;;;;;;;94.90;44.30;;;;;;;-144.47;100.00;61586.06;5022437;28;20589;-78
2021/12/22 07:53:12;;;;;;;92.15;44.38;;;;;;;-144.47;100.00;61586.06;5018944;28;20385;-78
2021/12/22 07:55:38;;;;;;;88.55;42.83;;;;;;;-144.47;100.00;61586.06;5020059;28;20034;-78
2021/12/22 07:58:04;;;;;;;92.78;45.08;;;;;;;-144.47;100.00;61586.06;5021184;28;20048;-78
2021/12/22 08:00:29;;;;;;;100.35;48.13;;;;;;;-144.47;100.00;61586.06;5020983;28;20112;-77
2021/12/22 08:02:55;;;;;;;105.03;47.30;;;;;;;-144.47;100.00;61586.06;5019200;28;20037;-79
2021/12/22 08:05:22;;;;;;;93.28;46.15;;;;;;;-144.47;100.00;61586.06;5022040;28;20030;-78
2021/12/22 08:07:47;;;;;;;100.90;47.15;;;;;;;-144.47;100.00;61586.06;5020031;28;20033;-76
2021/12/22 08:10:13;;;;;;;89.00;43.95;;;;;;;-144.47;100.00;61586.06;5003008;28;20053;-76
2021/12/22 08:12:38;;;;;;;85.13;45.28;;;;;;;-144.47;100.00;61586.06;5013219;28;20049;-78
2021/12/22 08:15:04;;;;;;;89.03;44.00;;;;;;;-144.47;100.00;61586.06;5024386;28;20045;-77
2021/12/22 08:17:32;;;;;;;95.45;45.08;;;;;;;-144.47;100.00;61586.06;5027264;28;20394;-77
2021/12/22 08:19:59;;;;;;;80.93;43.05;;;;;;;-144.47;100.00;61586.06;5022635;28;20375;-77
2021/12/22 08:22:25;;;;;;;78.13;42.50;;;;;;;-144.47;100.00;61586.06;5025473;28;20424;-77
2021/12/22 08:24:50;;;;;;;82.00;42.97;;;;;;;-144.47;100.00;61586.06;5022049;28;20422;-77
2021/12/22 08:27:21;;;;;;;86.60;43.25;;;;;;;-144.47;100.00;61586.06;5025738;28;20065;-78
2021/12/22 08:29:47;;;;;;;;;;;;;;;-144.47;100.00;61586.06;5025696;28;20084;-77
2021/12/22 08:32:13;;;;;;;79.70;40.88;;;;;;;-144.47;100.00;61586.06;5023149;28;20323;-77
2021/12/22 08:34:40;;;;;;;73.00;40.33;;;;;;;-144.47;100.00;61586.06;5023701;28;20034;-77
2021/12/22 08:39:52;;;;;;;77.57;39.85;;;;;;;-144.47;100.00;61586.06;5025199;28;20054;-78
2021/12/22 08:42:18;;;;;;;77.10;40.78;;;;;;;-144.47;100.00;61586.06;5024758;28;20064;-78
2021/12/22 08:44:45;;;;;;;80.70;40.75;;;;;;;-144.47;100.00;61586.06;5022086;28;20506;-78
2021/12/22 08:47:10;;;;;;;78.15;42.45;;;;;;;-144.47;100.00;61586.06;5027200;28;20508;-78
2021/12/22 08:49:36;;;;;;;85.32;41.40;;;;;;;-144.47;100.00;61586.06;5018448;28;20069;-78
2021/12/22 08:52:02;;;;;;;85.45;43.13;;;;;;;-144.47;100.00;61586.06;5022338;28;20041;-78
2021/12/22 08:54:28;;;;;;;94.47;42.60;;;;;;;-144.47;100.00;61586.06;5024444;28;20469;-77
2021/12/22 08:56:55;;;;;;;86.13;43.47;;;;;;;-144.47;100.00;61586.06;5021298;28;20105;-77
2021/12/22 08:59:22;;;;;;;92.28;45.65;;;;;;;-144.47;100.00;61586.06;5023763;28;20044;-78
2021/12/22 09:01:48;;;;;;;84.88;42.03;;;;;;;-144.47;100.00;61586.06;5021158;28;20057;-78
2021/12/22 09:04:14;;;;;;;90.43;43.10;;;;;;;-144.47;100.00;61586.06;5022244;28;20042;-76
2021/12/22 09:06:40;;;;;;;95.20;44.83;;;;;;;-144.47;100.00;61586.06;5023577;28;20030;-77
2021/12/22 09:09:07;;;;;;;91.40;44.90;;;;;;;-144.47;100.00;61586.06;5023386;28;20030;-77
2021/12/22 09:11:33;;;;;;;94.50;44.08;;;;;;;-144.47;100.00;61586.06;5021539;28;20073;-76
2021/12/22 09:13:58;;;;;;;92.88;44.72;;;;;;;-144.47;100.00;61586.06;5023597;28;20154;-77
2021/12/22 09:16:24;;;;;;;93.95;44.35;;;;;;;-144.47;100.00;61586.06;5023744;28;20390;-77
2021/12/22 09:18:50;;;;;;;95.15;43.03;;;;;;;-144.47;100.00;61586.06;5024945;28;20414;-77
2021/12/22 09:21:16;;;;;;;93.95;43.38;;;;;;;-144.47;100.00;61586.06;5021396;28;20037;-77
2021/12/22 09:23:42;;;;;;;80.85;40.83;;;;;;;-144.47;100.00;61586.06;5002647;28;20042;-76
2021/12/22 09:26:08;;;;;;;80.72;42.35;;;;;;;-144.47;100.00;61586.06;5013673;28;20385;-76
2021/12/22 09:28:34;;;;;;;83.10;42.50;;;;;;;-144.47;100.00;61586.06;5021854;28;20438;-78
2021/12/22 09:30:59;;;;;;;82.75;42.22;;;;;;;-144.47;100.00;61586.06;5023132;28;20041;-78
2021/12/22 09:33:25;;;;;;;81.70;42.10;;;;;;;-144.47;100.00;61586.06;5020865;28;20113;-78
2021/12/22 09:35:53;;;;;;;79.63;41.38;;;;;;;-144.47;100.00;61586.06;5026304;28;20036;-77
2021/12/22 09:38:19;;;;;;;81.53;43.08;;;;;;;-144.47;100.00;61586.06;5020303;28;20026;-78
2021/12/22 09:40:46;;;;;;;79.47;43.78;;;;;;;-144.47;100.00;61586.06;5021281;28;20049;-77
2021/12/22 09:43:12;;;;;;;84.60;42.70;;;;;;;-144.47;100.00;61586.06;5023017;28;20059;-77
2021/12/22 09:45:43;;;;;;;87.25;44.80;;;;;;;-144.47;100.00;61586.06;5021585;28;20103;-78
2021/12/22 09:50:51;;;;;;;85.20;46.03;;;;;;;-144.47;100.00;61586.06;5017654;28;20034;-77
2021/12/22 09:53:22;;;;;;;83.40;43.88;;;;;;;-144.47;100.00;61586.06;5016784;28;20038;-77
2021/12/22 09:55:48;;;;;;;85.07;43.92;;;;;;;-144.47;100.00;61586.06;5020538;28;20038;-76
2021/12/22 09:58:15;;;;;;;95.20;44.25;;;;;;;-144.47;100.00;61586.06;5023223;28;20045;-77
2021/12/22 10:00:42;;;;;;;82.55;44.45;;;;;;;-144.47;100.00;61586.06;5001515;28;20077;-78
2021/12/22 10:03:08;;;;;;;100.20;46.33;;;;;;;-144.47;100.00;61586.06;5013969;28;20112;-77
2021/12/22 10:05:36;;;;;;;82.28;44.25;;;;;;;-144.47;100.00;61586.06;5021512;28;20044;-77
2021/12/22 10:08:10;;;;;;;83.55;45.97;;;;;;;-144.47;100.00;61586.06;5022502;28;20036;-77
2021/12/22 10:10:45;;;;;;;78.05;43.55;;;;;;;-144.47;100.00;61586.06;5021495;28;20036;-78
2021/12/22 10:13:20;;;;;;;81.35;43.08;;;;;;;-144.47;100.00;61586.06;4999924;28;20038;-76
2021/12/22 10:15:46;;;;;;;108.47;45.80;;;;;;;-144.47;100.00;61586.06;5020378;28;20334;-75
2021/12/22 10:18:24;;;;;;;94.63;46.05;;;;;;;-144.47;100.00;61586.06;5020808;28;20029;-78
2021/12/22 10:20:53;;;;;;;91.43;47.50;;;;;;;-144.47;100.00;61586.06;5019580;28;20033;-78
2021/12/22 10:23:23;;;;;;;90.70;47.60;;;;;;;-144.47;100.00;61586.06;5019782;28;20497;-78
2021/12/22 10:25:54;;;;;;;100.80;49.13;;;;;;;-144.47;100.00;61586.06;5020163;28;20038;-78
2021/12/22 10:28:21;;;;;;;98.22;47.50;;;;;;;-144.47;100.00;61586.06;5022297;28;20498;-78
2021/12/22 10:30:48;;;;;;;85.85;46.33;;;;;;;-144.47;100.00;61586.06;5022613;28;20504;-78
2021/12/22 10:33:16;;;;;;;100.32;48.17;;;;;;;-144.47;100.00;61586.06;5020506;28;20046;-77
2021/12/22 10:36:00;;;;;;;92.65;48.17;;;;;;;-144.47;100.00;61586.06;5022306;28;20029;-78
2021/12/22 10:38:29;;;;;;;96.47;49.58;;;;;;;-144.47;100.00;61586.06;5020180;28;20162;-77
2021/12/22 10:41:03;;;;;;;91.95;49.10;;;;;;;-144.47;100.00;61586.06;5022524;28;20037;-77
2021/12/22 10:43:31;;;;;;;88.78;46.15;;;;;;;-144.47;100.00;61586.06;5020472;28;20041;-77
2021/12/22 10:46:00;;;;;;;93.38;47.63;;;;;;;-144.47;100.00;61586.06;5022907;28;20030;-76
2021/12/22 10:51:19;;;;;;;91.63;47.63;;;;;;;-144.47;100.00;61586.06;5014630;28;20033;-77
2021/12/22 10:53:48;;;;;;;78.10;44.25;;;;;;;-144.47;100.00;61586.06;5022983;28;20036;-78
2021/12/22 10:56:34;;;;;;;85.40;46.80;;;;;;;-144.47;100.00;61586.06;5023346;28;20395;-77
2021/12/22 10:59:14;;;;;;;76.90;43.78;;;;;;;-144.47;100.00;61586.06;5026118;28;20439;-77
2021/12/22 11:01:54;;;;;;;78.53;45.22;;;;;;;-144.47;100.00;61586.06;5015290;28;20046;-78
2021/12/22 11:04:27;;;;;;;80.55;44.17;;;;;;;-144.47;100.00;61586.06;5012849;28;20033;-79
2021/12/22 11:06:55;;;;;;;80.55;45.15;;;;;;;-144.47;100.00;61586.06;5019613;28;20034;-80
2021/12/22 11:09:23;;;;;;;84.07;46.45;;;;;;;-144.47;100.00;61586.06;5019403;28;20358;-79
2021/12/22 11:11:56;;;;;;;81.97;44.58;;;;;;;-144.47;100.00;61586.06;5024268;28;20163;-80
2021/12/22 11:14:27;;;;;;;79.50;43.58;;;;;;;-144.47;100.00;61586.06;5005258;28;20109;-80
2021/12/22 11:17:15;;;;;;;84.78;44.55;;;;;;;-144.47;100.00;61586.06;5021738;28;20497;-79